Time;durP1;ratioP1;P1;durP2;ratioP2;P2;SDS_P1;SDS_P2;PMS_P1;PMS_P2;Temp;Humidity;BMP_temperature;BMP_pressure;BME280_temperature;BME280_humidity;BME280_pressure;Samples;Min_cycle;Max_cycle;Signal;HPM_P1;HPM_P2
2021/07/29 00:00:33;;;;;;;;;;;23.30;63.90;;;;;;5041168;28;20530;-59
2021/07/29 00:02:59;;;;;;;;;;;23.30;63.90;;;;;;5041194;28;20340;-59
2021/07/29 00:05:25;;;;;;;;;;;23.30;63.80;;;;;;5040490;28;19917;-60
2021/07/29 00:07:50;;;;;;;;;;;23.30;63.80;;;;;;5040315;28;20000;-60
2021/07/29 00:10:16;;;;;;;;;;;23.30;63.70;;;;;;5039401;28;19923;-59
2021/07/29 00:12:41;;;;;;;;;;;23.30;63.70;;;;;;5040126;28;20404;-60
2021/07/29 00:15:14;;;;;;;;;;;23.30;63.70;;;;;;5040711;28;19916;-59
2021/07/29 00:20:12;;;;;;;;;;;23.30;63.60;;;;;;5041667;28;19913;-58
2021/07/29 00:22:38;;;;;;;;;;;23.30;63.60;;;;;;5040529;28;19928;-59
2021/07/29 00:25:06;;;;;;;;;;;23.30;63.60;;;;;;5040815;28;19999;-58
2021/07/29 00:27:35;;;;;;;;;;;23.30;63.60;;;;;;5041472;28;19952;-59
2021/07/29 00:30:00;;;;;;;;;;;23.30;63.60;;;;;;5039872;28;19967;-58
2021/07/29 00:32:26;;;;;;;;;;;23.30;63.60;;;;;;5039157;28;19921;-58
2021/07/29 00:34:51;;;;;;;;;;;23.30;63.60;;;;;;5039357;28;19924;-59
2021/07/29 00:37:17;;;;;;;;;;;23.30;63.60;;;;;;5040577;28;19920;-59
2021/07/29 00:39:42;;;;;;;;;;;23.30;63.60;;;;;;5038587;28;20297;-60
2021/07/29 00:42:07;;;;;;;;;;;23.30;63.50;;;;;;5039946;28;19917;-59
2021/07/29 00:44:34;;;;;;;;;;;23.30;63.50;;;;;;5033873;28;19917;-59
2021/07/29 00:47:00;;;;;;;;;;;23.30;63.40;;;;;;5037467;28;19948;-58
2021/07/29 00:49:26;;;;;;;;;;;23.30;63.50;;;;;;5039762;28;19931;-59
2021/07/29 00:51:51;;;;;;;;;;;23.30;63.40;;;;;;5040442;28;19917;-58
2021/07/29 00:54:17;;;;;;;;;;;23.30;63.40;;;;;;5039606;28;19913;-58
2021/07/29 00:56:43;;;;;;;;;;;23.30;63.40;;;;;;5041151;28;20384;-58
2021/07/29 00:59:08;;;;;;;;;;;23.30;63.40;;;;;;5039107;28;19913;-58
2021/07/29 01:01:34;;;;;;;;;;;23.30;63.40;;;;;;5040336;28;20533;-58
2021/07/29 01:03:59;;;;;;;;;;;23.30;63.40;;;;;;5041496;28;19921;-59
2021/07/29 01:06:25;;;;;;;;;;;23.30;63.30;;;;;;5040422;28;19916;-58
2021/07/29 01:09:00;;;;;;;;;;;23.20;63.20;;;;;;5040709;28;19923;-59
2021/07/29 01:11:26;;;;;;;;;;;23.20;63.20;;;;;;5041241;28;19995;-59
2021/07/29 01:13:51;;;;;;;;;;;23.30;63.40;;;;;;5041386;28;20309;-58
2021/07/29 01:16:17;;;;;;;;;;;23.30;63.30;;;;;;5040563;28;19913;-58
2021/07/29 01:18:42;;;;;;;;;;;23.20;63.20;;;;;;5041441;28;19983;-58
2021/07/29 01:21:08;;;;;;;;;;;23.30;63.30;;;;;;5039082;28;19924;-59
2021/07/29 01:23:33;;;;;;;;;;;23.20;63.30;;;;;;5041464;28;20821;-59
2021/07/29 01:25:58;;;;;;;;;;;23.30;63.30;;;;;;5039647;28;19917;-59
2021/07/29 01:28:24;;;;;;;;;;;23.20;63.20;;;;;;5038133;28;19912;-59
2021/07/29 01:30:49;;;;;;;;;;;23.20;63.30;;;;;;5039576;28;20022;-58
2021/07/29 01:33:15;;;;;;;;;;;23.20;63.30;;;;;;5041364;28;19943;-58
2021/07/29 01:35:42;;;;;;;;;;;23.20;63.30;;;;;;5039291;28;19913;-58
2021/07/29 01:38:07;;;;;;;;;;;23.20;63.40;;;;;;5039473;28;19928;-58
2021/07/29 01:40:32;;;;;;;;;;;23.20;63.30;;;;;;5039799;28;19913;-59
2021/07/29 01:42:58;;;;;;;;;;;23.20;63.40;;;;;;5039705;28;19921;-59
2021/07/29 01:45:23;;;;;;;;;;;23.20;63.30;;;;;;5039833;28;20635;-58
2021/07/29 01:47:49;;;;;;;;;;;23.20;63.30;;;;;;5039630;28;19913;-58
2021/07/29 01:50:14;;;;;;;;;;;23.20;63.20;;;;;;5040789;28;19912;-59
2021/07/29 01:52:40;;;;;;;;;;;23.20;63.20;;;;;;5040142;28;20522;-59
2021/07/29 01:55:06;;;;;;;;;;;23.20;63.20;;;;;;5040084;28;25398;-58
2021/07/29 01:57:31;;;;;;;;;;;23.10;63.10;;;;;;5040414;28;19924;-58
2021/07/29 01:59:57;;;;;;;;;;;23.20;63.10;;;;;;5039674;28;19913;-59
2021/07/29 02:02:22;;;;;;;;;;;23.20;63.10;;;;;;5043906;28;19925;-56
2021/07/29 02:04:48;;;;;;;;;;;23.20;63.20;;;;;;5042524;28;19945;-58
2021/07/29 02:07:13;;;;;;;;;;;23.20;63.10;;;;;;5043742;28;19917;-59
2021/07/29 02:09:38;;;;;;;;;;;23.20;63.20;;;;;;5043448;28;19913;-57
2021/07/29 02:12:04;;;;;;;;;;;23.20;63.20;;;;;;5042887;28;19928;-58
2021/07/29 02:14:30;;;;;;;;;;;23.10;63.20;;;;;;5042923;28;19959;-58
2021/07/29 02:16:55;;;;;;;;;;;23.10;63.10;;;;;;5043816;28;20362;-58
2021/07/29 02:19:21;;;;;;;;;;;23.20;63.30;;;;;;5042488;28;20428;-60
2021/07/29 02:21:46;;;;;;;;;;;23.10;63.10;;;;;;5041582;28;20413;-58
2021/07/29 02:24:12;;;;;;;;;;;23.10;63.10;;;;;;5043233;28;20006;-58
2021/07/29 02:26:37;;;;;;;;;;;23.10;63.20;;;;;;5042930;28;19919;-59
2021/07/29 02:29:03;;;;;;;;;;;23.20;63.20;;;;;;5042544;28;19945;-59
2021/07/29 02:31:28;;;;;;;;;;;23.10;63.00;;;;;;5041785;28;20381;-59
2021/07/29 02:33:53;;;;;;;;;;;23.10;63.00;;;;;;5041547;28;19944;-58
2021/07/29 02:36:19;;;;;;;;;;;23.10;63.00;;;;;;5042082;28;19917;-59
2021/07/29 02:38:44;;;;;;;;;;;23.10;62.90;;;;;;5042783;28;19913;-59
2021/07/29 02:41:10;;;;;;;;;;;23.10;62.90;;;;;;5042169;28;19935;-57
2021/07/29 02:43:35;;;;;;;;;;;23.10;62.90;;;;;;5042642;28;19952;-59
2021/07/29 02:46:01;;;;;;;;;;;23.10;62.80;;;;;;5042954;28;19912;-59
2021/07/29 02:48:26;;;;;;;;;;;23.10;62.90;;;;;;5041385;28;19920;-58
2021/07/29 02:50:54;;;;;;;;;;;23.10;62.90;;;;;;5041138;28;19939;-57
2021/07/29 02:53:20;;;;;;;;;;;23.10;62.80;;;;;;5042805;28;20439;-59
2021/07/29 02:55:46;;;;;;;;;;;23.10;62.80;;;;;;5043179;28;19924;-59
2021/07/29 02:58:11;;;;;;;;;;;23.10;63.00;;;;;;5042414;28;20270;-59
2021/07/29 03:00:36;;;;;;;;;;;23.00;62.80;;;;;;5041784;28;19983;-59
2021/07/29 03:03:02;;;;;;;;;;;23.10;62.90;;;;;;5042849;28;19917;-59
2021/07/29 03:05:27;;;;;;;;;;;23.00;62.90;;;;;;5041976;28;19924;-58
2021/07/29 03:07:53;;;;;;;;;;;23.00;62.90;;;;;;5041445;28;20501;-58
2021/07/29 03:10:18;;;;;;;;;;;23.00;62.80;;;;;;5041937;28;19921;-59
2021/07/29 03:12:44;;;;;;;;;;;23.00;62.80;;;;;;5042441;28;19917;-58
2021/07/29 03:15:09;;;;;;;;;;;23.00;62.90;;;;;;5043304;28;19919;-58
2021/07/29 03:17:35;;;;;;;;;;;23.00;62.80;;;;;;5041999;28;20270;-59
2021/07/29 03:20:00;;;;;;;;;;;23.00;62.80;;;;;;5041930;28;20175;-58
2021/07/29 03:22:26;;;;;;;;;;;23.00;62.70;;;;;;5042508;28;19917;-58
2021/07/29 03:24:51;;;;;;;;;;;23.00;62.80;;;;;;5043011;28;19917;-59
2021/07/29 03:27:16;;;;;;;;;;;23.00;62.70;;;;;;5042760;28;19920;-59
2021/07/29 03:29:42;;;;;;;;;;;23.00;62.60;;;;;;5041328;28;20622;-58
2021/07/29 03:32:07;;;;;;;;;;;23.00;62.60;;;;;;5041532;28;19925;-59
2021/07/29 03:34:33;;;;;;;;;;;23.00;62.60;;;;;;5042061;28;19913;-59
2021/07/29 03:36:58;;;;;;;;;;;23.00;62.60;;;;;;5042705;28;19917;-59
2021/07/29 03:39:24;;;;;;;;;;;23.00;62.70;;;;;;5040932;28;19940;-60
2021/07/29 03:41:49;;;;;;;;;;;23.00;62.70;;;;;;5022745;28;19921;-57
2021/07/29 03:44:15;;;;;;;;;;;23.00;62.70;;;;;;5005603;28;20826;-59
2021/07/29 03:46:40;;;;;;;;;;;23.00;62.80;;;;;;5006602;28;20294;-58
2021/07/29 03:49:06;;;;;;;;;;;23.00;62.80;;;;;;5010391;28;19936;-60
2021/07/29 03:51:31;;;;;;;;;;;23.00;62.80;;;;;;5010988;28;19917;-57
2021/07/29 03:53:57;;;;;;;;;;;23.00;62.80;;;;;;5024756;28;20369;-59
2021/07/29 03:56:22;;;;;;;;;;;23.00;62.80;;;;;;5040916;28;19927;-59
2021/07/29 03:58:47;;;;;;;;;;;23.00;62.80;;;;;;5019589;28;19913;-58
2021/07/29 04:01:13;;;;;;;;;;;22.90;62.80;;;;;;5041559;28;20297;-59
2021/07/29 04:03:38;;;;;;;;;;;22.90;62.80;;;;;;5041126;28;19920;-58
2021/07/29 04:06:04;;;;;;;;;;;22.90;62.80;;;;;;5041811;28;19920;-57
2021/07/29 04:08:29;;;;;;;;;;;23.00;62.90;;;;;;5041911;28;20337;-59
2021/07/29 04:10:58;;;;;;;;;;;23.00;62.80;;;;;;5041023;28;19921;-59
2021/07/29 04:13:24;;;;;;;;;;;23.00;62.80;;;;;;5042109;28;19917;-58
2021/07/29 04:15:57;;;;;;;;;;;22.90;62.90;;;;;;5042208;28;19975;-58
2021/07/29 04:18:22;;;;;;;;;;;22.90;62.80;;;;;;5037146;28;22106;-59
2021/07/29 04:20:48;;;;;;;;;;;23.00;63.00;;;;;;5041154;28;19927;-58
2021/07/29 04:23:13;;;;;;;;;;;23.00;62.90;;;;;;5041815;28;19975;-57
2021/07/29 04:25:39;;;;;;;;;;;22.90;63.00;;;;;;5041141;28;19919;-59
2021/07/29 04:28:04;;;;;;;;;;;22.90;63.00;;;;;;5040763;28;19916;-58
2021/07/29 04:30:30;;;;;;;;;;;22.90;63.00;;;;;;5040944;28;19917;-59
2021/07/29 04:32:55;;;;;;;;;;;22.90;63.00;;;;;;5051037;22;20130;-65
2021/07/29 04:35:21;;;;;;;;;;;22.90;63.00;;;;;;5021595;28;19975;-64
2021/07/29 04:37:46;;;;;;;;;;;22.90;63.00;;;;;;5021184;28;19920;-64
2021/07/29 04:40:13;;;;;;;;;;;22.90;63.40;;;;;;5021424;28;20358;-64
2021/07/29 04:42:38;;;;;;;;;;;22.90;63.10;;;;;;5020397;28;19959;-64
2021/07/29 04:45:04;;;;;;;;;;;22.90;63.00;;;;;;5021907;28;19917;-63
2021/07/29 04:47:31;;;;;;;;;;;22.90;63.20;;;;;;5021767;28;20374;-64
2021/07/29 04:49:56;;;;;;;;;;;22.90;63.20;;;;;;5019394;28;20015;-64
2021/07/29 04:52:22;;;;;;;;;;;22.90;63.20;;;;;;5022310;28;20283;-64
2021/07/29 04:54:47;;;;;;;;;;;22.90;63.20;;;;;;5022263;28;19917;-64
2021/07/29 04:57:13;;;;;;;;;;;22.90;63.10;;;;;;5021476;28;20332;-64
2021/07/29 04:59:41;;;;;;;;;;;22.90;63.00;;;;;;5020999;28;19920;-64
2021/07/29 05:02:06;;;;;;;;;;;22.90;63.00;;;;;;5019278;28;19913;-64
2021/07/29 05:04:32;;;;;;;;;;;22.90;63.00;;;;;;5019918;28;19928;-64
2021/07/29 05:06:58;;;;;;;;;;;22.90;62.90;;;;;;5019922;28;20326;-64
2021/07/29 05:09:24;;;;;;;;;;;22.90;62.90;;;;;;5021462;28;19920;-64
2021/07/29 05:11:49;;;;;;;;;;;22.90;63.00;;;;;;5019046;28;19914;-64
2021/07/29 05:14:15;;;;;;;;;;;22.90;63.00;;;;;;5020597;28;20499;-65
2021/07/29 05:16:40;;;;;;;;;;;22.90;63.00;;;;;;5020478;28;19921;-64
2021/07/29 05:19:06;;;;;;;;;;;22.90;63.10;;;;;;5019014;28;19913;-64
2021/07/29 05:21:31;;;;;;;;;;;22.90;63.10;;;;;;5019630;28;19917;-64
2021/07/29 05:23:57;;;;;;;;;;;22.90;63.20;;;;;;5019443;28;19971;-63
2021/07/29 05:26:22;;;;;;;;;;;22.90;63.20;;;;;;5020779;28;19917;-64
2021/07/29 05:28:48;;;;;;;;;;;22.90;63.30;;;;;;5020428;28;19917;-64
2021/07/29 05:31:13;;;;;;;;;;;22.90;63.30;;;;;;5019624;28;20323;-64
2021/07/29 05:33:39;;;;;;;;;;;22.90;63.20;;;;;;5019928;28;19929;-63
2021/07/29 05:36:05;;;;;;;;;;;22.90;63.30;;;;;;5023578;28;20393;-64
2021/07/29 05:38:30;;;;;;;;;;;22.90;63.30;;;;;;5024493;28;19983;-65
2021/07/29 05:40:59;;;;;;;;;;;22.90;63.20;;;;;;5023631;28;19931;-64
2021/07/29 05:43:25;;;;;;;;;;;22.90;63.30;;;;;;5024362;28;19928;-65
2021/07/29 05:45:50;;;;;;;;;;;22.90;63.40;;;;;;5038060;28;19913;-66
2021/07/29 05:48:16;;;;;;;;;;;22.90;63.30;;;;;;5062381;28;20501;-64
2021/07/29 05:50:41;;;;;;;;;;;22.90;63.30;;;;;;5064639;28;19916;-63
2021/07/29 05:53:07;;;;;;;;;;;22.90;63.20;;;;;;5045989;28;19952;-63
2021/07/29 05:55:32;;;;;;;;;;;22.90;63.20;;;;;;5063303;28;19966;-65
2021/07/29 05:58:01;;;;;;;;;;;22.90;63.10;;;;;;5064261;28;20228;-64
2021/07/29 06:00:26;;;;;;;;;;;22.90;63.10;;;;;;5063240;28;19916;-64
2021/07/29 06:02:52;;;;;;;;;;;22.90;63.10;;;;;;5064470;28;19923;-64
2021/07/29 06:05:17;;;;;;;;;;;22.90;63.30;;;;;;5061630;28;19919;-64
2021/07/29 06:07:43;;;;;;;;;;;22.90;63.20;;;;;;5056951;28;20396;-63
2021/07/29 06:10:10;;;;;;;;;;;22.90;63.10;;;;;;5063268;28;19916;-63
2021/07/29 06:12:35;;;;;;;;;;;22.90;62.90;;;;;;5062793;28;20490;-64
2021/07/29 06:15:01;;;;;;;;;;;22.90;63.10;;;;;;5045353;28;19966;-64
2021/07/29 06:17:33;;;;;;;;;;;22.90;63.00;;;;;;5063472;28;19942;-64
2021/07/29 06:20:05;;;;;;;;;;;22.90;63.10;;;;;;5047070;28;19924;-63
2021/07/29 06:22:33;;;;;;;;;;;22.90;63.10;;;;;;5062412;28;19920;-64
2021/07/29 06:24:59;;;;;;;;;;;22.90;63.00;;;;;;5064051;28;20561;-63
2021/07/29 06:27:24;;;;;;;;;;;22.90;63.00;;;;;;5064785;28;19931;-64
2021/07/29 06:29:50;;;;;;;;;;;22.90;63.00;;;;;;5046027;28;19912;-64
2021/07/29 06:32:15;;;;;;;;;;;22.90;63.00;;;;;;5064145;28;20373;-63
2021/07/29 06:34:41;;;;;;;;;;;22.90;62.90;;;;;;5064017;28;19979;-64
2021/07/29 06:37:06;;;;;;;;;;;22.90;62.80;;;;;;5062716;28;19919;-63
2021/07/29 06:39:32;;;;;;;;;;;22.90;62.60;;;;;;5063304;28;19913;-64
2021/07/29 06:41:57;;;;;;;;;;;22.90;62.60;;;;;;5063620;28;20447;-64
2021/07/29 06:44:23;;;;;;;;;;;22.90;62.50;;;;;;5061653;28;19924;-63
2021/07/29 06:46:48;;;;;;;;;;;22.90;62.20;;;;;;5045722;28;19928;-64
2021/07/29 06:49:13;;;;;;;;;;;22.90;62.50;;;;;;5063093;28;19972;-64
2021/07/29 06:51:39;;;;;;;;;;;22.90;62.40;;;;;;5063652;28;19946;-63
2021/07/29 06:54:04;;;;;;;;;;;22.90;62.20;;;;;;5063354;28;19924;-63
2021/07/29 06:56:31;;;;;;;;;;;22.90;62.10;;;;;;5062211;28;19913;-64
2021/07/29 06:58:56;;;;;;;;;;;22.90;62.20;;;;;;5061669;28;19923;-64
2021/07/29 07:01:22;;;;;;;;;;;22.90;62.30;;;;;;5062471;28;19917;-67
2021/07/29 07:03:48;;;;;;;;;;;22.90;62.40;;;;;;5061976;28;19928;-63
2021/07/29 07:06:13;;;;;;;;;;;22.90;62.20;;;;;;5062200;28;20361;-63
2021/07/29 07:08:38;;;;;;;;;;;22.90;62.30;;;;;;5062314;28;19912;-63
2021/07/29 07:11:06;;;;;;;;;;;22.90;62.30;;;;;;5061976;28;20696;-63
2021/07/29 07:13:32;;;;;;;;;;;22.90;62.30;;;;;;5061750;28;19926;-64
2021/07/29 07:15:57;;;;;;;;;;;22.90;62.20;;;;;;5060685;28;19913;-63
2021/07/29 07:18:23;;;;;;;;;;;22.90;62.30;;;;;;5062295;28;19912;-64
2021/07/29 07:20:48;;;;;;;;;;;22.90;62.10;;;;;;5061856;28;20733;-63
2021/07/29 07:23:14;;;;;;;;;;;22.90;62.10;;;;;;5062880;28;19920;-64
2021/07/29 07:25:39;;;;;;;;;;;22.90;62.30;;;;;;5062818;28;19935;-63
2021/07/29 07:28:04;;;;;;;;;;;22.90;62.30;;;;;;5060999;28;20168;-64
2021/07/29 07:30:31;;;;;;;;;;;22.90;62.30;;;;;;5062774;28;19916;-62
2021/07/29 07:32:57;;;;;;;;;;;22.90;62.00;;;;;;5061457;28;19970;-64
2021/07/29 07:35:23;;;;;;;;;;;22.90;62.00;;;;;;5062566;28;19921;-66
2021/07/29 07:37:48;;;;;;;;;;;22.90;62.10;;;;;;5062094;28;20376;-65
2021/07/29 07:40:14;;;;;;;;;;;22.90;62.10;;;;;;5060882;28;19916;-65
2021/07/29 07:42:39;;;;;;;;;;;22.90;62.00;;;;;;5061596;28;19927;-65
2021/07/29 07:45:04;;;;;;;;;;;22.90;62.00;;;;;;5062733;28;19913;-65
2021/07/29 07:47:32;;;;;;;;;;;22.90;61.90;;;;;;5061343;28;19923;-65
2021/07/29 07:49:57;;;;;;;;;;;22.90;61.70;;;;;;5060610;28;20003;-65
2021/07/29 07:52:23;;;;;;;;;;;22.90;61.70;;;;;;5065508;28;19975;-65
2021/07/29 07:54:48;;;;;;;;;;;22.90;61.70;;;;;;5067117;28;19916;-65
2021/07/29 07:57:14;;;;;;;;;;;22.90;61.70;;;;;;5065194;28;19924;-65
2021/07/29 07:59:39;;;;;;;;;;;22.90;61.70;;;;;;5061982;28;19939;-65
2021/07/29 08:02:05;;;;;;;;;;;22.90;61.70;;;;;;5062686;28;19970;-65
2021/07/29 08:04:30;;;;;;;;;;;22.90;61.70;;;;;;5061101;28;20616;-65
2021/07/29 08:06:56;;;;;;;;;;;22.90;61.70;;;;;;5061201;28;19916;-64
2021/07/29 08:09:21;;;;;;;;;;;22.90;61.70;;;;;;5062616;28;19913;-65
2021/07/29 08:11:46;;;;;;;;;;;22.90;61.80;;;;;;5062417;28;19920;-64
2021/07/29 08:14:12;;;;;;;;;;;22.90;61.90;;;;;;5062238;28;19993;-65
2021/07/29 08:16:38;;;;;;;;;;;22.90;62.00;;;;;;5060874;28;20228;-65
2021/07/29 08:19:03;;;;;;;;;;;22.90;62.00;;;;;;5060605;28;19916;-65
2021/07/29 08:21:29;;;;;;;;;;;22.90;62.00;;;;;;5060768;28;19991;-65
2021/07/29 08:23:54;;;;;;;;;;;22.90;62.10;;;;;;5061856;28;19916;-64
2021/07/29 08:26:20;;;;;;;;;;;22.90;62.10;;;;;;5061218;28;19923;-65
2021/07/29 08:28:45;;;;;;;;;;;22.90;62.10;;;;;;5060272;28;20700;-64
2021/07/29 08:31:11;;;;;;;;;;;22.90;62.10;;;;;;5061945;28;19995;-65
2021/07/29 08:33:36;;;;;;;;;;;22.90;61.90;;;;;;5062203;28;19917;-65
2021/07/29 08:36:02;;;;;;;;;;;22.90;61.90;;;;;;5061788;28;19923;-65
2021/07/29 08:38:27;;;;;;;;;;;22.90;61.90;;;;;;5060352;28;20559;-65
2021/07/29 08:40:53;;;;;;;;;;;22.90;61.80;;;;;;5062132;28;20381;-68
2021/07/29 08:43:19;;;;;;;;;;;22.90;61.70;;;;;;5057450;28;20074;-65
2021/07/29 08:45:44;;;;;;;;;;;22.90;61.60;;;;;;5040946;28;20003;-64
2021/07/29 08:48:10;;;;;;;;;;;22.90;61.80;;;;;;5024075;28;20414;-65
2021/07/29 08:50:36;;;;;;;;;;;22.90;61.70;;;;;;5041288;28;20381;-64
2021/07/29 08:53:01;;;;;;;;;;;22.90;61.70;;;;;;5041478;28;19920;-65
2021/07/29 08:55:26;;;;;;;;;;;22.90;61.50;;;;;;5041173;28;19938;-65
2021/07/29 08:57:52;;;;;;;;;;;22.80;61.30;;;;;;5042611;28;19941;-64
2021/07/29 09:00:18;;;;;;;;;;;22.80;61.20;;;;;;5042325;28;19921;-65
2021/07/29 09:02:43;;;;;;;;;;;22.90;61.30;;;;;;5020421;28;20454;-64
2021/07/29 09:05:09;;;;;;;;;;;22.90;61.40;;;;;;5042056;28;19921;-65
2021/07/29 09:07:35;;;;;;;;;;;22.90;60.50;;;;;;5042273;28;20629;-64
2021/07/29 09:10:03;;;;;;;;;;;22.90;59.60;;;;;;5041685;28;19928;-65
2021/07/29 09:12:29;;;;;;;;;;;22.80;59.80;;;;;;5047034;28;19958;-65
2021/07/29 09:14:54;;;;;;;;;;;22.80;59.90;;;;;;5045563;28;20385;-65
2021/07/29 09:17:20;;;;;;;;;;;22.90;60.00;;;;;;5044281;28;19928;-64
2021/07/29 09:19:46;;;;;;;;;;;22.80;60.00;;;;;;5045916;28;19920;-65
2021/07/29 09:22:15;;;;;;;;;;;22.80;60.20;;;;;;5045005;28;20048;-63
2021/07/29 09:24:59;;;;;;;;;;;22.90;60.30;;;;;;5045765;28;19959;-63
2021/07/29 09:27:26;;;;;;;;;;;22.80;60.50;;;;;;5037405;28;19924;-64
2021/07/29 09:29:51;;;;;;;;;;;22.80;60.50;;;;;;5046170;28;19920;-63
2021/07/29 09:32:17;;;;;;;;;;;22.80;60.60;;;;;;5047489;28;19920;-63
2021/07/29 09:34:43;;;;;;;;;;;22.80;60.60;;;;;;5047153;28;19917;-63
2021/07/29 09:37:09;;;;;;;;;;;22.80;60.70;;;;;;5047170;28;19913;-63
2021/07/29 09:39:34;;;;;;;;;;;22.80;60.80;;;;;;5044457;28;19924;-63
2021/07/29 09:42:19;;;;;;;;;;;22.90;61.10;;;;;;5045102;28;19923;-63
2021/07/29 09:44:45;;;;;;;;;;;22.80;61.00;;;;;;5045592;28;19968;-63
2021/07/29 09:47:10;;;;;;;;;;;22.80;61.10;;;;;;5045810;28;19971;-63
2021/07/29 09:49:36;;;;;;;;;;;22.90;61.10;;;;;;5044103;28;19951;-63
2021/07/29 09:52:01;;;;;;;;;;;22.80;61.10;;;;;;5044543;28;19917;-63
2021/07/29 09:54:27;;;;;;;;;;;22.80;60.90;;;;;;5039374;28;19967;-63
2021/07/29 09:56:53;;;;;;;;;;;22.90;60.90;;;;;;5043610;28;19923;-63
2021/07/29 09:59:18;;;;;;;;;;;22.90;60.90;;;;;;5033169;28;19947;-64
2021/07/29 10:01:43;;;;;;;;;;;22.80;60.90;;;;;;5042463;28;19917;-63
2021/07/29 10:04:09;;;;;;;;;;;22.80;60.80;;;;;;5034728;28;19916;-64
2021/07/29 10:06:34;;;;;;;;;;;22.90;60.80;;;;;;5026529;28;19917;-63
2021/07/29 10:09:01;;;;;;;;;;;22.90;60.80;;;;;;5039169;28;19924;-63
2021/07/29 10:11:28;;;;;;;;;;;22.90;60.80;;;;;;5035856;28;20034;-63
2021/07/29 10:13:53;;;;;;;;;;;22.80;60.60;;;;;;5034450;28;20319;-63
2021/07/29 10:16:39;;;;;;;;;;;22.90;60.60;;;;;;5019889;28;19913;-64
2021/07/29 10:19:05;;;;;;;;;;;22.90;60.50;;;;;;5045103;28;19920;-64
2021/07/29 10:21:31;;;;;;;;;;;22.90;60.60;;;;;;5033420;28;20489;-64
2021/07/29 10:23:58;;;;;;;;;;;22.90;60.50;;;;;;5033866;28;19923;-64
2021/07/29 10:26:23;;;;;;;;;;;22.90;60.40;;;;;;5036112;28;19917;-63
2021/07/29 10:28:49;;;;;;;;;;;22.90;60.40;;;;;;5039403;28;19913;-63
2021/07/29 10:31:15;;;;;;;;;;;22.90;60.50;;;;;;5043420;28;19917;-65
2021/07/29 10:33:41;;;;;;;;;;;22.90;60.70;;;;;;5050995;22;19928;-60
2021/07/29 10:36:08;;;;;;;;;;;22.90;60.30;;;;;;5040254;28;20409;-61
2021/07/29 10:38:39;;;;;;;;;;;22.90;60.40;;;;;;5041297;28;20674;-60
2021/07/29 10:41:25;;;;;;;;;;;22.90;60.40;;;;;;5040999;28;19956;-59
2021/07/29 10:43:50;;;;;;;;;;;22.90;60.40;;;;;;5023833;28;19948;-58
2021/07/29 10:46:16;;;;;;;;;;;22.90;60.40;;;;;;5062173;28;19952;-60
2021/07/29 10:48:43;;;;;;;;;;;22.90;60.50;;;;;;5062003;28;19913;-59
2021/07/29 10:51:12;;;;;;;;;;;22.90;60.60;;;;;;5062404;28;19947;-60
2021/07/29 10:53:38;;;;;;;;;;;22.90;60.50;;;;;;5061177;28;19921;-58
2021/07/29 10:56:03;;;;;;;;;;;22.90;60.50;;;;;;5055754;28;19958;-59
2021/07/29 10:58:37;;;;;;;;;;;22.90;60.40;;;;;;5062704;28;20397;-61
2021/07/29 11:01:02;;;;;;;;;;;22.90;60.40;;;;;;5061421;28;19916;-60
2021/07/29 11:03:28;;;;;;;;;;;22.90;60.50;;;;;;5062341;28;20431;-59
2021/07/29 11:06:03;;;;;;;;;;;22.90;60.50;;;;;;5062773;28;19962;-60
2021/07/29 11:08:29;;;;;;;;;;;22.90;60.60;;;;;;5063036;28;19959;-58
2021/07/29 11:10:56;;;;;;;;;;;22.90;60.70;;;;;;5061235;28;19917;-58
2021/07/29 11:13:22;;;;;;;;;;;22.90;60.70;;;;;;5061139;28;19928;-59
2021/07/29 11:15:47;;;;;;;;;;;22.90;60.70;;;;;;5061694;28;19916;-61
2021/07/29 11:18:15;;;;;;;;;;;22.90;60.60;;;;;;5062973;28;19913;-61
2021/07/29 11:20:40;;;;;;;;;;;22.90;60.40;;;;;;5063602;28;20580;-61
2021/07/29 11:23:06;;;;;;;;;;;22.90;60.30;;;;;;5061140;28;19922;-60
2021/07/29 11:25:33;;;;;;;;;;;22.90;60.40;;;;;;5062218;28;20617;-60
2021/07/29 11:28:12;;;;;;;;;;;22.90;60.30;;;;;;5062165;28;20328;-61
2021/07/29 11:30:41;;;;;;;;;;;22.90;60.20;;;;;;5062105;28;20042;-60
2021/07/29 11:33:06;;;;;;;;;;;22.90;60.40;;;;;;5061375;28;19925;-59
2021/07/29 11:35:32;;;;;;;;;;;22.90;60.40;;;;;;5060081;28;20367;-60
2021/07/29 11:37:57;;;;;;;;;;;22.90;60.30;;;;;;5060360;28;20185;-59
2021/07/29 11:40:23;;;;;;;;;;;22.90;60.20;;;;;;5061026;28;20573;-59
2021/07/29 11:42:48;;;;;;;;;;;22.90;60.30;;;;;;5061432;28;19921;-60
2021/07/29 11:45:20;;;;;;;;;;;22.90;60.40;;;;;;5062325;28;19997;-60
2021/07/29 11:47:46;;;;;;;;;;;22.90;60.40;;;;;;5058879;28;20004;-60
2021/07/29 11:50:11;;;;;;;;;;;22.90;60.40;;;;;;5061857;28;19916;-60
2021/07/29 11:52:48;;;;;;;;;;;22.90;60.40;;;;;;5059983;28;19919;-60
2021/07/29 11:55:14;;;;;;;;;;;22.90;60.30;;;;;;5060994;28;19912;-59
2021/07/29 11:57:40;;;;;;;;;;;22.90;60.30;;;;;;5061361;28;19917;-60
2021/07/29 12:00:06;;;;;;;;;;;22.90;60.40;;;;;;5059913;28;20027;-59
2021/07/29 12:02:31;;;;;;;;;;;22.90;60.50;;;;;;5061576;28;19919;-59
2021/07/29 12:04:57;;;;;;;;;;;22.90;60.50;;;;;;5050906;28;19920;-59
2021/07/29 12:07:22;;;;;;;;;;;22.90;60.50;;;;;;5049211;28;19916;-58
2021/07/29 12:09:48;;;;;;;;;;;22.90;60.40;;;;;;5060247;28;20456;-60
2021/07/29 12:12:13;;;;;;;;;;;22.90;60.30;;;;;;5062520;28;19916;-61
2021/07/29 12:14:45;;;;;;;;;;;22.90;60.30;;;;;;5058965;28;19920;-60
2021/07/29 12:17:20;;;;;;;;;;;23.00;60.20;;;;;;5060450;28;20005;-60
2021/07/29 12:19:55;;;;;;;;;;;23.00;60.00;;;;;;5049384;28;19920;-61
2021/07/29 12:22:24;;;;;;;;;;;23.00;60.00;;;;;;5061088;28;19916;-60
2021/07/29 12:24:50;;;;;;;;;;;23.00;60.80;;;;;;5060398;28;19916;-61
2021/07/29 12:27:18;;;;;;;;;;;22.90;60.10;;;;;;5060410;28;19912;-59
2021/07/29 12:29:44;;;;;;;;;;;22.90;60.10;;;;;;5059967;28;19923;-61
2021/07/29 12:32:22;;;;;;;;;;;23.00;60.10;;;;;;5061067;28;19917;-60
2021/07/29 12:34:48;;;;;;;;;;;22.90;60.00;;;;;;5060632;28;19920;-60
2021/07/29 12:37:26;;;;;;;;;;;23.00;60.10;;;;;;5060887;28;19928;-60
2021/07/29 12:39:55;;;;;;;;;;;22.90;60.00;;;;;;5058621;28;21954;-61
2021/07/29 12:42:20;;;;;;;;;;;23.00;59.90;;;;;;5059304;28;19928;-60
2021/07/29 12:44:55;;;;;;;;;;;22.90;59.80;;;;;;5060097;28;20324;-60
2021/07/29 12:47:21;;;;;;;;;;;23.00;59.90;;;;;;5060037;28;19952;-59
2021/07/29 12:49:46;;;;;;;;;;;23.00;59.80;;;;;;5059829;28;19917;-60
2021/07/29 12:52:18;;;;;;;;;;;23.00;59.70;;;;;;5060556;28;19912;-58
2021/07/29 12:55:07;;;;;;;;;;;23.00;59.70;;;;;;5060514;28;19917;-61
2021/07/29 12:57:48;;;;;;;;;;;23.00;59.60;;;;;;5059794;28;19956;-58
2021/07/29 13:00:16;;;;;;;;;;;23.00;59.30;;;;;;5060488;28;20577;-61
2021/07/29 13:02:41;;;;;;;;;;;23.00;59.30;;;;;;5060407;28;19962;-61
2021/07/29 13:05:07;;;;;;;;;;;23.00;59.30;;;;;;5060053;28;19924;-61
2021/07/29 13:07:32;;;;;;;;;;;22.90;59.30;;;;;;5060472;28;19920;-62
2021/07/29 13:09:58;;;;;;;;;;;22.90;59.50;;;;;;5061404;28;20367;-59
2021/07/29 13:12:23;;;;;;;;;;;23.00;59.60;;;;;;5060864;28;19916;-59
2021/07/29 13:14:49;;;;;;;;;;;22.90;59.50;;;;;;5061302;28;19955;-60
2021/07/29 13:17:14;;;;;;;;;;;23.00;59.40;;;;;;5061911;28;20597;-60
2021/07/29 13:19:40;;;;;;;;;;;23.00;59.50;;;;;;5058507;28;20528;-59
2021/07/29 13:22:05;;;;;;;;;;;23.00;59.40;;;;;;5061872;28;19959;-60
2021/07/29 13:24:31;;;;;;;;;;;23.00;59.30;;;;;;5059753;28;20023;-60
2021/07/29 13:26:56;;;;;;;;;;;23.00;59.40;;;;;;5060583;28;20332;-60
2021/07/29 13:29:22;;;;;;;;;;;23.00;59.50;;;;;;5057873;28;19916;-60
2021/07/29 13:31:47;;;;;;;;;;;23.00;59.60;;;;;;5060412;28;19921;-60
2021/07/29 13:34:12;;;;;;;;;;;23.00;59.50;;;;;;5061209;28;20439;-61
2021/07/29 13:36:39;;;;;;;;;;;23.00;59.40;;;;;;5060867;28;19912;-61
2021/07/29 13:39:05;;;;;;;;;;;23.00;59.30;;;;;;5060191;28;19928;-60
2021/07/29 13:41:30;;;;;;;;;;;23.00;59.40;;;;;;5060676;28;19916;-59
2021/07/29 13:43:56;;;;;;;;;;;23.00;59.40;;;;;;5061254;28;19974;-60
2021/07/29 13:46:21;;;;;;;;;;;23.00;59.50;;;;;;5061148;28;19922;-59
2021/07/29 13:48:47;;;;;;;;;;;23.00;59.40;;;;;;5059271;28;19916;-57
2021/07/29 13:51:12;;;;;;;;;;;23.00;59.30;;;;;;5061008;28;19912;-61
2021/07/29 13:53:38;;;;;;;;;;;23.00;59.10;;;;;;5061136;28;20092;-60
2021/07/29 13:56:03;;;;;;;;;;;23.00;59.00;;;;;;5060791;28;19935;-60
2021/07/29 13:58:29;;;;;;;;;;;23.00;59.20;;;;;;5064611;28;19916;-60
2021/07/29 14:00:55;;;;;;;;;;;23.00;59.00;;;;;;5064456;28;19990;-61
2021/07/29 14:03:20;;;;;;;;;;;23.00;59.00;;;;;;5064633;28;19917;-61
2021/07/29 14:05:45;;;;;;;;;;;23.00;59.10;;;;;;5064898;28;19916;-60
2021/07/29 14:08:11;;;;;;;;;;;23.00;59.10;;;;;;5063559;28;19923;-59
2021/07/29 14:10:36;;;;;;;;;;;23.00;59.20;;;;;;5063234;28;19960;-58
2021/07/29 14:13:02;;;;;;;;;;;23.00;59.30;;;;;;5064517;28;20386;-59